createdAt,value
2018-06-25T00:00:28.114Z,98024.10
2018-06-25T00:00:59.713Z,98025.38
2018-06-25T00:01:31.344Z,98016.49
2018-06-25T00:02:02.950Z,98022.03
2018-06-25T00:02:34.536Z,98021.63
2018-06-25T00:03:06.137Z,98025.89
2018-06-25T00:03:37.745Z,98025.87
2018-06-25T00:04:09.358Z,98024.53
2018-06-25T00:04:40.942Z,98024.58
2018-06-25T00:05:12.525Z,98023.72
2018-06-25T00:05:44.113Z,98025.45
2018-06-25T00:06:15.685Z,98020.34
2018-06-25T00:06:47.305Z,98021.13
2018-06-25T00:07:18.914Z,98024.10
2018-06-25T00:07:50.502Z,98024.09
2018-06-25T00:08:22.104Z,98024.95
2018-06-25T00:08:53.709Z,98025.38
2018-06-25T00:09:25.293Z,98018.22
2018-06-25T00:09:56.904Z,98022.02
2018-06-25T00:10:28.553Z,98022.86
2018-06-25T00:11:00.130Z,98020.75
2018-06-25T00:11:31.709Z,98019.03
2018-06-25T00:12:03.287Z,98018.62
2018-06-25T00:12:34.923Z,98018.67
2018-06-25T00:13:06.523Z,98021.61
2018-06-25T00:13:38.120Z,98012.23
2018-06-25T00:14:09.701Z,98014.83
2018-06-25T00:14:41.296Z,98015.69
2018-06-25T00:15:12.917Z,98008.92
2018-06-25T00:15:44.501Z,98011.06
2018-06-25T00:16:16.105Z,98012.75
2018-06-25T00:16:47.711Z,98011.00
2018-06-25T00:17:19.317Z,98008.48
2018-06-25T00:17:50.901Z,98009.30
2018-06-25T00:18:22.501Z,98008.86
2018-06-25T00:18:54.110Z,98003.40
2018-06-25T00:19:25.738Z,98003.81
2018-06-25T00:19:57.341Z,97999.98
2018-06-25T00:20:28.946Z,98002.19
2018-06-25T00:21:00.583Z,98003.87
2018-06-25T00:21:32.169Z,97997.85
2018-06-25T00:22:03.760Z,98000.45
2018-06-25T00:22:35.345Z,98005.09
2018-06-25T00:23:06.925Z,97998.27
2018-06-25T00:23:38.578Z,97997.41
2018-06-25T00:24:10.189Z,97995.70
2018-06-25T00:24:41.765Z,97998.28
2018-06-25T00:25:13.336Z,97996.63
2018-06-25T00:25:44.918Z,97995.30
2018-06-25T00:26:16.512Z,97996.20
2018-06-25T00:26:48.087Z,97991.09
2018-06-25T00:27:19.665Z,97991.09
2018-06-25T00:27:51.301Z,97989.80
2018-06-25T00:28:22.909Z,97991.94
2018-06-25T00:28:54.520Z,97999.56
2018-06-25T00:29:26.098Z,97993.64
2018-06-25T00:29:57.701Z,97997.07
2018-06-25T00:30:29.308Z,97992.37
2018-06-25T00:31:00.889Z,97994.98
2018-06-25T00:31:32.465Z,97994.16
2018-06-25T00:32:04.042Z,97991.59
2018-06-25T00:32:35.641Z,97996.27
2018-06-25T00:33:07.226Z,97992.00
2018-06-25T00:33:38.810Z,98000.09
2018-06-25T00:34:10.463Z,97994.09
2018-06-25T00:34:42.060Z,98000.11
2018-06-25T00:35:13.674Z,97995.41
2018-06-25T00:35:45.285Z,97997.13
2018-06-25T00:36:16.893Z,97997.92
2018-06-25T00:36:48.468Z,97998.83
2018-06-25T00:37:20.049Z,98000.48
2018-06-25T00:37:51.632Z,98000.48
2018-06-25T00:38:23.210Z,98000.47
2018-06-25T00:38:54.794Z,98003.04
2018-06-25T00:39:26.398Z,98000.11
2018-06-25T00:39:58.006Z,98002.66
2018-06-25T00:40:29.597Z,98000.09
2018-06-25T00:41:01.192Z,97999.67
2018-06-25T00:41:32.792Z,98000.97
2018-06-25T00:42:04.405Z,98005.66
2018-06-25T00:42:36.057Z,98004.37
2018-06-25T00:43:07.634Z,97998.83
2018-06-25T00:43:39.221Z,98007.80
2018-06-25T00:44:10.888Z,98005.23
2018-06-25T00:44:42.473Z,97998.03
2018-06-25T00:45:14.084Z,98004.37
2018-06-25T00:45:45.670Z,98005.64
2018-06-25T00:46:17.273Z,98009.48
2018-06-25T00:46:48.885Z,98004.80
2018-06-25T00:47:20.519Z,98007.42
2018-06-25T00:47:52.129Z,98001.47
2018-06-25T00:48:23.738Z,97999.34
2018-06-25T00:48:55.336Z,98002.31
2018-06-25T00:49:26.922Z,97997.63
2018-06-25T00:49:58.527Z,98003.15
2018-06-25T00:50:30.163Z,97997.99
2018-06-25T00:51:01.748Z,97998.42
2018-06-25T00:51:33.343Z,98005.66
2018-06-25T00:52:04.974Z,97996.72
2018-06-25T00:52:36.553Z,97997.14
2018-06-25T00:53:08.152Z,98004.44
2018-06-25T00:53:39.751Z,97997.63
2018-06-25T00:54:11.356Z,98002.30
2018-06-25T00:54:42.941Z,97999.75
2018-06-25T00:55:14.518Z,97998.06
2018-06-25T00:55:46.129Z,98001.89
2018-06-25T00:56:17.734Z,98003.66
2018-06-25T00:56:49.314Z,98002.81
2018-06-25T00:57:20.934Z,98001.09
2018-06-25T00:57:52.512Z,98001.94
2018-06-25T00:58:24.126Z,98003.64
2018-06-25T00:58:55.701Z,97997.27
2018-06-25T00:59:27.277Z,97997.27
2018-06-25T00:59:58.882Z,97997.76
2018-06-25T01:00:30.480Z,98003.64
2018-06-25T01:01:02.075Z,98000.69
2018-06-25T01:01:33.876Z,98000.67
2018-06-25T01:02:05.525Z,98001.95
2018-06-25T01:02:37.124Z,98001.11
2018-06-25T01:03:08.709Z,98001.95
2018-06-25T01:03:40.309Z,98013.05
2018-06-25T01:04:11.920Z,98004.52
2018-06-25T01:04:43.509Z,98005.80
2018-06-25T01:05:15.086Z,98008.34
2018-06-25T01:05:46.665Z,98008.36
2018-06-25T01:06:18.237Z,98009.21
2018-06-25T01:06:49.818Z,98002.44
2018-06-25T01:07:21.469Z,98003.73
2018-06-25T01:07:53.069Z,98007.58
2018-06-25T01:08:24.648Z,98010.13
2018-06-25T01:08:56.301Z,98008.85
2018-06-25T01:09:27.901Z,98010.56
2018-06-25T01:09:59.509Z,98003.78
2018-06-25T01:10:31.119Z,98013.59
2018-06-25T01:11:02.738Z,98009.27
2018-06-25T01:11:34.337Z,98007.99
2018-06-25T01:12:05.912Z,98012.73
2018-06-25T01:12:37.504Z,98010.61
2018-06-25T01:13:09.076Z,98008.05
2018-06-25T01:13:40.696Z,98008.48
2018-06-25T01:14:12.282Z,98009.28
2018-06-25T01:14:43.871Z,98015.66
2018-06-25T01:15:15.453Z,98013.47
2018-06-25T01:15:47.047Z,98012.53
2018-06-25T01:16:18.640Z,98006.48
2018-06-25T01:16:50.214Z,98012.47
2018-06-25T01:17:21.817Z,98007.78
2018-06-25T01:17:53.391Z,98008.70
2018-06-25T01:18:24.969Z,98009.61
2018-06-25T01:18:56.554Z,98011.31
2018-06-25T01:19:28.159Z,98006.64
2018-06-25T01:19:59.769Z,98009.61
2018-06-25T01:20:31.374Z,98010.03
2018-06-25T01:21:02.986Z,98004.94
2018-06-25T01:21:34.569Z,98008.76
2018-06-25T01:22:06.153Z,98012.17
2018-06-25T01:22:37.720Z,98013.45
2018-06-25T01:23:09.347Z,98011.76
2018-06-25T01:23:40.949Z,98008.77
2018-06-25T01:24:12.545Z,98012.59
2018-06-25T01:24:44.153Z,98009.25
2018-06-25T01:25:15.757Z,98016.82
2018-06-25T01:25:47.352Z,98015.17
2018-06-25T01:26:18.947Z,98015.58
2018-06-25T01:26:50.529Z,98010.89
2018-06-25T01:27:22.129Z,98013.03
2018-06-25T01:27:53.711Z,98006.64
2018-06-25T01:28:25.342Z,98015.58
2018-06-25T01:28:56.917Z,98008.34
2018-06-25T01:29:28.501Z,98007.50
2018-06-25T01:30:00.077Z,98012.60
2018-06-25T01:30:31.662Z,98010.84
2018-06-25T01:31:03.241Z,98001.97
2018-06-25T01:31:34.818Z,98009.19
2018-06-25T01:32:06.398Z,98012.23
2018-06-25T01:32:37.964Z,98012.24
2018-06-25T01:33:09.555Z,98003.78
2018-06-25T01:33:41.156Z,98004.21
2018-06-25T01:34:12.738Z,98007.16
2018-06-25T01:34:44.308Z,98007.20
2018-06-25T01:35:15.899Z,98000.80
2018-06-25T01:35:47.509Z,98005.08
2018-06-25T01:36:19.093Z,98006.78
2018-06-25T01:36:50.716Z,98005.13
2018-06-25T01:37:22.294Z,97999.11
2018-06-25T01:37:53.898Z,98007.58
2018-06-25T01:38:25.506Z,98006.73
2018-06-25T01:38:57.097Z,98007.56
2018-06-25T01:39:28.688Z,98011.40
2018-06-25T01:40:00.270Z,98010.55
2018-06-25T01:40:31.860Z,98007.98
2018-06-25T01:41:03.465Z,98009.69
2018-06-25T01:41:35.121Z,98007.56
2018-06-25T01:42:06.738Z,98008.89
2018-06-25T01:42:38.322Z,98004.22
2018-06-25T01:43:09.909Z,98006.77
2018-06-25T01:43:41.513Z,98005.92
2018-06-25T01:44:13.094Z,98003.36
2018-06-25T01:44:44.701Z,98010.17
2018-06-25T01:45:16.285Z,98008.06
2018-06-25T01:45:47.893Z,98012.73
2018-06-25T01:46:19.502Z,98011.84
2018-06-25T01:46:51.112Z,98008.89
2018-06-25T01:47:22.714Z,98008.89
2018-06-25T01:47:54.297Z,98008.05
2018-06-25T01:48:25.874Z,98011.46
2018-06-25T01:48:57.440Z,98010.19
2018-06-25T01:49:29.047Z,98010.61
2018-06-25T01:50:00.650Z,98011.88
2018-06-25T01:50:32.224Z,98011.04
2018-06-25T01:51:03.806Z,98005.13
2018-06-25T01:51:35.395Z,98011.48
2018-06-25T01:52:07.002Z,98010.24
2018-06-25T01:52:38.573Z,98013.61
2018-06-25T01:53:10.233Z,98010.31
2018-06-25T01:53:41.819Z,98010.31
2018-06-25T01:54:13.401Z,98010.69
2018-06-25T01:54:45.002Z,98008.56
2018-06-25T01:55:16.585Z,98009.84
2018-06-25T01:55:48.189Z,98011.97
2018-06-25T01:56:19.769Z,98007.27
2018-06-25T01:56:51.359Z,98007.69
2018-06-25T01:57:22.935Z,98005.55
2018-06-25T01:57:54.527Z,98013.61
2018-06-25T01:58:26.114Z,98011.95
2018-06-25T01:58:57.717Z,98011.95
2018-06-25T01:59:29.313Z,98016.64
2018-06-25T02:00:00.926Z,98015.37
2018-06-25T02:00:32.519Z,98014.95
2018-06-25T02:01:04.170Z,98009.04
2018-06-25T02:01:35.750Z,98014.94
2018-06-25T02:02:07.320Z,98014.95
2018-06-25T02:02:38.920Z,98010.25
2018-06-25T02:03:10.528Z,98008.12
2018-06-25T02:03:42.113Z,98014.09
2018-06-25T02:04:13.718Z,98011.17
2018-06-25T02:04:45.337Z,98017.14
2018-06-25T02:05:16.972Z,98014.59
2018-06-25T02:05:48.577Z,98011.17
2018-06-25T02:06:20.181Z,98012.02
2018-06-25T02:06:51.779Z,98017.13
2018-06-25T02:07:23.375Z,98015.43
2018-06-25T02:07:54.961Z,98013.31
2018-06-25T02:08:26.536Z,98013.73
2018-06-25T02:08:58.104Z,98017.58
2018-06-25T02:09:29.705Z,98010.80
2018-06-25T02:10:01.332Z,98018.47
2018-06-25T02:10:32.919Z,98018.85
2018-06-25T02:11:04.496Z,98015.81
2018-06-25T02:11:36.072Z,98018.41
2018-06-25T02:12:07.674Z,98015.38
2018-06-25T02:12:39.261Z,98016.70
2018-06-25T02:13:10.865Z,98013.31
2018-06-25T02:13:42.469Z,98021.41
2018-06-25T02:14:14.054Z,98015.02
2018-06-25T02:14:45.659Z,98013.73
2018-06-25T02:15:17.290Z,98015.81
2018-06-25T02:15:48.883Z,98013.30
2018-06-25T02:16:20.457Z,98011.59
2018-06-25T02:16:52.041Z,98014.16
2018-06-25T02:17:23.621Z,98012.89
2018-06-25T02:17:55.220Z,98012.04
2018-06-25T02:18:26.800Z,98009.53
2018-06-25T02:18:58.367Z,98010.38
2018-06-25T02:19:29.969Z,98012.95
2018-06-25T02:20:01.548Z,98012.52
2018-06-25T02:20:33.193Z,98013.80
2018-06-25T02:21:04.806Z,98013.00
2018-06-25T02:21:36.409Z,98011.73
2018-06-25T02:22:07.984Z,98010.46
2018-06-25T02:22:39.575Z,98018.06
2018-06-25T02:23:11.144Z,98017.63
2018-06-25T02:23:42.725Z,98018.06
2018-06-25T02:24:14.329Z,98019.34
2018-06-25T02:24:45.937Z,98021.05
2018-06-25T02:25:17.532Z,98016.78
2018-06-25T02:25:49.177Z,98013.85
2018-06-25T02:26:20.762Z,98018.98
2018-06-25T02:26:52.366Z,98025.78
2018-06-25T02:27:23.944Z,98020.73
2018-06-25T02:27:55.516Z,98024.52
2018-06-25T02:28:27.098Z,98024.08
2018-06-25T02:28:58.677Z,98021.89
2018-06-25T02:29:30.257Z,98024.47
2018-06-25T02:30:01.886Z,98023.66
2018-06-25T02:30:33.513Z,98027.45
2018-06-25T02:31:05.139Z,98023.24
2018-06-25T02:31:36.721Z,98024.09
2018-06-25T02:32:08.295Z,98025.75
2018-06-25T02:32:39.874Z,98023.24
2018-06-25T02:33:11.451Z,98022.80
2018-06-25T02:33:43.035Z,98023.66
2018-06-25T02:34:14.642Z,98024.09
2018-06-25T02:34:46.235Z,98022.81
2018-06-25T02:35:17.845Z,98026.27
2018-06-25T02:35:49.482Z,98028.34
2018-06-25T02:36:21.067Z,98025.38
2018-06-25T02:36:52.681Z,98025.42
2018-06-25T02:37:24.262Z,98026.66
2018-06-25T02:37:55.841Z,98029.22
2018-06-25T02:38:27.497Z,98025.80
2018-06-25T02:38:59.066Z,98031.39
2018-06-25T02:39:30.655Z,98024.11
2018-06-25T02:40:02.264Z,98036.88
2018-06-25T02:40:33.850Z,98035.17
2018-06-25T02:41:05.478Z,98034.74
2018-06-25T02:41:37.096Z,98037.23
2018-06-25T02:42:08.743Z,98032.59
2018-06-25T02:42:40.343Z,98033.41
2018-06-25T02:43:11.940Z,98033.02
2018-06-25T02:43:43.529Z,98031.32
2018-06-25T02:44:15.100Z,98034.31
2018-06-25T02:44:46.690Z,98029.63
2018-06-25T02:45:18.293Z,98034.32
2018-06-25T02:45:49.878Z,98039.00
2018-06-25T02:46:21.520Z,98033.81
2018-06-25T02:46:53.122Z,98029.15
2018-06-25T02:47:24.734Z,98030.86
2018-06-25T02:47:56.332Z,98027.06
2018-06-25T02:48:27.946Z,98027.93
2018-06-25T02:48:59.553Z,98023.25
2018-06-25T02:49:31.184Z,98028.41
2018-06-25T02:50:02.763Z,98031.41
2018-06-25T02:50:34.336Z,98023.32
2018-06-25T02:51:05.918Z,98029.70
2018-06-25T02:51:37.562Z,98026.28
2018-06-25T02:52:09.169Z,98032.68
2018-06-25T02:52:40.776Z,98030.55
2018-06-25T02:53:12.358Z,98029.69
2018-06-25T02:53:43.942Z,98027.98
2018-06-25T02:54:15.512Z,98034.37
2018-06-25T02:54:47.094Z,98028.41
2018-06-25T02:55:18.696Z,98025.86
2018-06-25T02:55:50.277Z,98027.98
2018-06-25T02:56:21.986Z,98026.78
2018-06-25T02:56:53.628Z,98027.63
2018-06-25T02:57:25.214Z,98031.41
2018-06-25T02:57:56.812Z,98030.55
2018-06-25T02:58:28.420Z,98036.09
2018-06-25T02:59:00.029Z,98037.38
2018-06-25T02:59:31.613Z,98033.55
2018-06-25T03:00:03.189Z,98033.55
2018-06-25T03:00:34.823Z,98033.53
2018-06-25T03:01:06.417Z,98036.50
2018-06-25T03:01:38.278Z,98033.52
2018-06-25T03:02:09.862Z,98036.52
2018-06-25T03:02:41.473Z,98037.80
2018-06-25T03:03:13.061Z,98038.27
2018-06-25T03:03:44.632Z,98036.58
2018-06-25T03:04:16.212Z,98034.86
2018-06-25T03:04:47.790Z,98031.47
2018-06-25T03:05:19.360Z,98035.29
2018-06-25T03:05:50.958Z,98051.00
2018-06-25T03:06:22.605Z,98033.10
2018-06-25T03:06:54.214Z,98027.58
2018-06-25T03:07:25.865Z,98028.86
2018-06-25T03:07:57.474Z,98030.13
2018-06-25T03:08:29.053Z,98033.52
2018-06-25T03:09:00.628Z,98033.05
2018-06-25T03:09:32.233Z,98032.59
2018-06-25T03:10:03.806Z,98030.00
2018-06-25T03:10:35.386Z,98035.09
2018-06-25T03:11:06.994Z,98033.41
2018-06-25T03:11:38.588Z,98031.77
2018-06-25T03:12:10.194Z,98037.72
2018-06-25T03:12:41.842Z,98027.08
2018-06-25T03:13:13.414Z,98030.06
2018-06-25T03:13:45.004Z,98032.62
2018-06-25T03:14:16.613Z,98037.35
2018-06-25T03:14:48.198Z,98029.69
2018-06-25T03:15:19.782Z,98029.27
2018-06-25T03:15:51.356Z,98027.55
2018-06-25T03:16:22.944Z,98028.36
2018-06-25T03:16:54.555Z,98030.05
2018-06-25T03:17:26.209Z,98029.14
2018-06-25T03:17:57.791Z,98032.91
2018-06-25T03:18:29.393Z,98026.95
2018-06-25T03:19:01.006Z,98025.67
2018-06-25T03:19:32.590Z,98028.70
2018-06-25T03:20:04.193Z,98031.69
2018-06-25T03:20:35.796Z,98030.47
2018-06-25T03:21:07.385Z,98034.30
2018-06-25T03:21:38.962Z,98033.03
2018-06-25T03:22:10.550Z,98032.62
2018-06-25T03:22:42.257Z,98034.75
2018-06-25T03:23:13.823Z,98028.41
2018-06-25T03:23:45.410Z,98032.20
2018-06-25T03:24:16.993Z,98031.34
2018-06-25T03:24:48.569Z,98034.32
2018-06-25T03:25:20.141Z,98026.64
2018-06-25T03:25:51.742Z,98024.95
2018-06-25T03:26:23.312Z,98030.47
2018-06-25T03:26:54.885Z,98030.91
2018-06-25T03:27:26.530Z,98027.48
2018-06-25T03:27:58.113Z,98031.28
2018-06-25T03:28:29.716Z,98033.41
2018-06-25T03:29:01.322Z,98031.70
2018-06-25T03:29:32.895Z,98030.00
2018-06-25T03:30:04.475Z,98033.84
2018-06-25T03:30:36.044Z,98037.66
2018-06-25T03:31:07.637Z,98038.57
2018-06-25T03:31:39.254Z,98035.17
2018-06-25T03:32:10.882Z,98036.93
2018-06-25T03:32:42.480Z,98034.37
2018-06-25T03:33:14.061Z,98030.13
2018-06-25T03:33:45.664Z,98039.05
2018-06-25T03:34:17.236Z,98044.13
2018-06-25T03:34:48.827Z,98044.98
2018-06-25T03:35:20.429Z,98046.30
2018-06-25T03:35:51.999Z,98050.92
2018-06-25T03:36:23.578Z,98046.66
2018-06-25T03:36:55.181Z,98044.91
2018-06-25T03:37:26.845Z,98052.16
2018-06-25T03:37:58.440Z,98049.65
2018-06-25T03:38:30.067Z,98053.01
2018-06-25T03:39:01.636Z,98050.08
2018-06-25T03:39:33.245Z,98049.67
2018-06-25T03:40:04.824Z,98047.53
2018-06-25T03:40:36.391Z,98044.13
2018-06-25T03:41:07.969Z,98046.25
2018-06-25T03:41:39.562Z,98045.88
2018-06-25T03:42:11.169Z,98043.74
2018-06-25T03:42:42.785Z,98039.42
2018-06-25T03:43:14.364Z,98047.47
2018-06-25T03:43:45.979Z,98044.53
2018-06-25T03:44:17.562Z,98041.55
2018-06-25T03:44:49.271Z,98040.28
2018-06-25T03:45:20.852Z,98045.81
2018-06-25T03:45:52.428Z,98040.70
2018-06-25T03:46:23.991Z,98046.66
2018-06-25T03:46:55.593Z,98042.42
2018-06-25T03:47:27.202Z,98044.11
2018-06-25T03:47:58.850Z,98042.84
2018-06-25T03:48:30.462Z,98040.28
2018-06-25T03:49:02.050Z,98041.19
2018-06-25T03:49:33.672Z,98046.67
2018-06-25T03:50:05.239Z,98049.22
2018-06-25T03:50:36.821Z,98052.63
2018-06-25T03:51:08.409Z,98048.80
2018-06-25T03:51:39.988Z,98047.53
2018-06-25T03:52:11.580Z,98051.84
2018-06-25T03:52:43.148Z,98049.28
2018-06-25T03:53:14.749Z,98053.55
2018-06-25T03:53:46.355Z,98048.44
2018-06-25T03:54:17.952Z,98058.25
2018-06-25T03:54:49.593Z,98059.53
2018-06-25T03:55:21.193Z,98064.64
2018-06-25T03:55:52.828Z,98059.99
2018-06-25T03:56:24.407Z,98065.53
2018-06-25T03:56:56.004Z,98060.86
2018-06-25T03:57:27.589Z,98064.69
2018-06-25T03:57:59.163Z,98068.95
2018-06-25T03:58:30.747Z,98066.82
2018-06-25T03:59:02.357Z,98066.81
2018-06-25T03:59:33.932Z,98067.67
2018-06-25T04:00:05.558Z,98069.44
2018-06-25T04:00:37.147Z,98070.24
2018-06-25T04:01:08.811Z,98068.16
2018-06-25T04:01:40.342Z,98069.86
2018-06-25T04:02:11.985Z,98068.58
2018-06-25T04:02:43.579Z,98070.72
2018-06-25T04:03:15.185Z,98073.70
2018-06-25T04:03:46.797Z,98070.72
2018-06-25T04:04:18.368Z,98071.14
2018-06-25T04:04:49.960Z,98072.00
2018-06-25T04:05:21.545Z,98070.70
2018-06-25T04:05:53.120Z,98072.00
2018-06-25T04:06:24.713Z,98069.81
2018-06-25T04:06:56.317Z,98066.88
2018-06-25T04:07:27.945Z,98069.43
2018-06-25T04:07:59.520Z,98068.58
2018-06-25T04:08:31.147Z,98069.01
2018-06-25T04:09:02.743Z,98066.47
2018-06-25T04:09:34.348Z,98065.59
2018-06-25T04:10:05.933Z,98071.56
2018-06-25T04:10:37.517Z,98069.02
2018-06-25T04:11:09.104Z,98066.88
2018-06-25T04:11:40.697Z,98069.81
2018-06-25T04:12:12.385Z,98073.27
2018-06-25T04:12:43.924Z,98071.94
2018-06-25T04:13:15.520Z,98072.79
2018-06-25T04:13:47.116Z,98068.96
2018-06-25T04:14:18.701Z,98068.53
2018-06-25T04:14:50.277Z,98069.39
2018-06-25T04:15:21.844Z,98040.42
2018-06-25T04:15:53.426Z,98067.69
2018-06-25T04:16:25.038Z,98072.37
2018-06-25T04:16:56.651Z,98066.81
2018-06-25T04:17:28.265Z,98068.53
2018-06-25T04:17:59.913Z,98069.80
2018-06-25T04:18:31.502Z,98065.18
2018-06-25T04:19:03.146Z,98066.83
2018-06-25T04:19:34.791Z,98073.64
2018-06-25T04:20:06.414Z,98072.31
2018-06-25T04:20:38.026Z,98068.89
2018-06-25T04:21:09.618Z,98072.31
2018-06-25T04:21:41.193Z,98070.17
2018-06-25T04:22:12.772Z,98069.33
2018-06-25T04:22:44.359Z,98074.85
2018-06-25T04:23:15.942Z,98072.67
2018-06-25T04:23:47.578Z,98075.16
2018-06-25T04:24:19.234Z,98077.52
2018-06-25T04:24:50.822Z,98079.86
2018-06-25T04:25:22.392Z,98073.77
2018-06-25T04:25:53.974Z,98070.73
2018-06-25T04:26:25.549Z,98075.77
2018-06-25T04:26:57.158Z,98079.63
2018-06-25T04:27:28.756Z,98082.35
2018-06-25T04:28:00.343Z,98079.92
2018-06-25T04:28:31.915Z,98076.16
2018-06-25T04:29:03.501Z,98083.90
2018-06-25T04:29:35.126Z,98080.98
2018-06-25T04:30:06.826Z,98081.47
2018-06-25T04:30:38.417Z,98084.95
2018-06-25T04:31:10.045Z,98083.26
2018-06-25T04:31:41.628Z,98082.95
2018-06-25T04:32:13.256Z,98084.66
2018-06-25T04:32:44.827Z,98087.63
2018-06-25T04:33:16.419Z,98084.27
2018-06-25T04:33:48.006Z,98089.81
2018-06-25T04:34:19.613Z,98087.27
2018-06-25T04:34:51.198Z,98089.41
2018-06-25T04:35:22.806Z,98087.69
2018-06-25T04:35:54.390Z,98091.11
2018-06-25T04:36:26.001Z,98078.88
2018-06-25T04:36:57.597Z,98089.39
2018-06-25T04:37:29.229Z,98092.80
2018-06-25T04:38:00.817Z,98090.24
2018-06-25T04:38:32.398Z,98092.39
2018-06-25T04:39:03.981Z,98088.59
2018-06-25T04:39:35.557Z,98082.65
2018-06-25T04:40:07.133Z,98088.98
2018-06-25T04:40:38.739Z,98090.68
2018-06-25T04:41:10.342Z,98094.94
2018-06-25T04:41:41.953Z,98091.95
2018-06-25T04:42:13.552Z,98087.27
2018-06-25T04:42:45.168Z,98092.80
2018-06-25T04:43:16.745Z,98091.53
2018-06-25T04:43:48.316Z,98091.97
2018-06-25T04:44:19.927Z,98095.36
2018-06-25T04:44:51.515Z,98097.48
2018-06-25T04:45:23.113Z,98099.20
2018-06-25T04:45:54.723Z,98100.47
2018-06-25T04:46:26.328Z,98097.45
2018-06-25T04:46:57.953Z,98090.63
2018-06-25T04:47:29.558Z,98098.77
2018-06-25T04:48:01.165Z,98093.66
2018-06-25T04:48:32.769Z,98092.43
2018-06-25T04:49:04.356Z,98094.52
2018-06-25T04:49:35.933Z,98098.82
2018-06-25T04:50:07.514Z,98096.70
2018-06-25T04:50:39.090Z,98100.11
2018-06-25T04:51:10.693Z,98098.41
2018-06-25T04:51:42.264Z,98099.69
2018-06-25T04:52:13.873Z,98094.57
2018-06-25T04:52:45.453Z,98098.41
2018-06-25T04:53:17.019Z,98100.11
2018-06-25T04:53:48.589Z,98095.84
2018-06-25T04:54:20.159Z,98100.97
2018-06-25T04:54:51.738Z,98099.69
2018-06-25T04:55:23.308Z,98100.53
2018-06-25T04:55:54.958Z,98092.01
2018-06-25T04:56:26.561Z,98100.95
2018-06-25T04:56:58.165Z,98092.80
2018-06-25T04:57:29.790Z,98095.78
2018-06-25T04:58:01.393Z,98096.20
2018-06-25T04:58:32.964Z,98090.26
2018-06-25T04:59:04.556Z,98095.35
2018-06-25T04:59:36.162Z,98096.65
2018-06-25T05:00:07.769Z,98095.80
2018-06-25T05:00:39.365Z,98087.28
2018-06-25T05:01:11.059Z,98091.53
2018-06-25T05:01:42.641Z,98091.94
2018-06-25T05:02:14.249Z,98091.09
2018-06-25T05:02:45.858Z,98091.53
2018-06-25T05:03:17.452Z,98092.75
2018-06-25T05:03:49.024Z,98093.22
2018-06-25T05:04:20.612Z,98096.59
2018-06-25T05:04:52.189Z,98096.63
2018-06-25T05:05:23.788Z,98091.95
2018-06-25T05:05:55.377Z,98099.20
2018-06-25T05:06:27.165Z,98094.93
2018-06-25T05:06:58.776Z,98099.62
2018-06-25T05:07:30.354Z,98096.17
2018-06-25T05:08:01.937Z,98100.00
2018-06-25T05:08:33.504Z,98099.62
2018-06-25T05:09:05.142Z,98104.73
2018-06-25T05:09:36.773Z,98108.58
2018-06-25T05:10:08.374Z,98110.27
2018-06-25T05:10:39.945Z,98111.50
2018-06-25T05:11:11.536Z,98115.33
2018-06-25T05:11:43.117Z,98118.73
2018-06-25T05:12:14.688Z,98120.02
2018-06-25T05:12:46.256Z,98118.36
2018-06-25T05:13:17.834Z,98123.05
2018-06-25T05:13:49.437Z,98120.45
2018-06-25T05:14:21.066Z,98124.28
2018-06-25T05:14:52.659Z,98124.75
2018-06-25T05:15:24.270Z,98122.56
2018-06-25T05:15:55.868Z,98111.25
2018-06-25T05:16:27.468Z,98124.70
2018-06-25T05:16:59.169Z,98126.77
2018-06-25T05:17:30.764Z,98124.14
2018-06-25T05:18:02.380Z,98125.85
2018-06-25T05:18:33.956Z,98127.56
2018-06-25T05:19:05.534Z,98122.45
2018-06-25T05:19:37.103Z,98122.06
2018-06-25T05:20:08.714Z,98124.63
2018-06-25T05:20:40.293Z,98126.83
2018-06-25T05:21:11.903Z,98123.84
2018-06-25T05:21:43.515Z,98126.41
2018-06-25T05:22:15.161Z,98123.05
2018-06-25T05:22:46.744Z,98123.43
2018-06-25T05:23:18.349Z,98119.64
2018-06-25T05:23:49.954Z,98122.19
2018-06-25T05:24:21.562Z,98124.33
2018-06-25T05:24:53.156Z,98124.34
2018-06-25T05:25:24.748Z,98127.75
2018-06-25T05:25:56.319Z,98127.33
2018-06-25T05:26:27.951Z,98127.33
2018-06-25T05:26:59.524Z,98122.25
2018-06-25T05:27:31.096Z,98129.08
2018-06-25T05:28:02.684Z,98126.47
2018-06-25T05:28:34.265Z,98127.38
2018-06-25T05:29:05.860Z,98129.93
2018-06-25T05:29:37.445Z,98126.53
2018-06-25T05:30:09.167Z,98131.22
2018-06-25T05:30:40.760Z,98129.12
2018-06-25T05:31:12.346Z,98133.77
2018-06-25T05:31:43.989Z,98138.02
2018-06-25T05:32:15.564Z,98132.91
2018-06-25T05:32:47.139Z,98134.18
2018-06-25T05:33:18.735Z,98137.97
2018-06-25T05:33:50.331Z,98135.83
2018-06-25T05:34:21.918Z,98137.11
2018-06-25T05:34:53.501Z,98135.83
2018-06-25T05:35:25.078Z,98134.98
2018-06-25T05:35:56.688Z,98138.81
2018-06-25T05:36:28.260Z,98138.39
2018-06-25T05:36:59.876Z,98140.09
2018-06-25T05:37:31.474Z,98135.41
2018-06-25T05:38:03.063Z,98139.25
2018-06-25T05:38:34.636Z,98138.81
2018-06-25T05:39:06.237Z,98137.97
2018-06-25T05:39:37.902Z,98137.48
2018-06-25T05:40:09.485Z,98141.74
2018-06-25T05:40:41.060Z,98145.16
2018-06-25T05:41:12.654Z,98146.01
2018-06-25T05:41:44.237Z,98146.01
2018-06-25T05:42:15.852Z,98143.92
2018-06-25T05:42:47.445Z,98143.86
2018-06-25T05:43:19.030Z,98148.97
2018-06-25T05:43:50.600Z,98147.71
2018-06-25T05:44:22.186Z,98146.47
2018-06-25T05:44:53.779Z,98153.73
2018-06-25T05:45:25.385Z,98149.48
2018-06-25T05:45:56.980Z,98156.27
2018-06-25T05:46:28.585Z,98157.98
2018-06-25T05:47:00.200Z,98153.73
2018-06-25T05:47:31.785Z,98157.55
2018-06-25T05:48:03.385Z,98156.70
2018-06-25T05:48:34.979Z,98155.87
2018-06-25T05:49:06.593Z,98154.59
2018-06-25T05:49:38.206Z,98160.91
2018-06-25T05:50:09.817Z,98152.88
2018-06-25T05:50:41.421Z,98159.69
2018-06-25T05:51:13.030Z,98154.57
2018-06-25T05:51:44.608Z,98156.72
2018-06-25T05:52:16.229Z,98158.48
2018-06-25T05:52:47.814Z,98155.91
2018-06-25T05:53:19.397Z,98153.73
2018-06-25T05:53:51.003Z,98155.02
2018-06-25T05:54:22.595Z,98159.74
2018-06-25T05:54:54.196Z,98159.28
2018-06-25T05:55:25.822Z,98161.83
2018-06-25T05:55:57.430Z,98160.59
2018-06-25T05:56:29.045Z,98156.72
2018-06-25T05:57:00.649Z,98161.44
2018-06-25T05:57:32.236Z,98161.41
2018-06-25T05:58:03.878Z,98163.11
2018-06-25T05:58:35.544Z,98160.55
2018-06-25T05:59:07.122Z,98160.96
2018-06-25T05:59:38.692Z,98155.44
2018-06-25T06:00:10.300Z,98161.39
2018-06-25T06:00:41.881Z,98160.98
2018-06-25T06:01:13.472Z,98160.98
2018-06-25T06:01:45.057Z,98158.00
2018-06-25T06:02:16.656Z,98157.98
2018-06-25T06:02:48.261Z,98163.09
2018-06-25T06:03:19.904Z,98159.25
2018-06-25T06:03:51.509Z,98160.06
2018-06-25T06:04:23.098Z,98160.11
2018-06-25T06:04:54.681Z,98160.55
2018-06-25T06:05:26.266Z,98159.74
2018-06-25T06:05:57.872Z,98164.43
2018-06-25T06:06:29.444Z,98155.06
2018-06-25T06:07:01.026Z,98161.88
2018-06-25T06:07:32.620Z,98159.27
2018-06-25T06:08:04.216Z,98157.13
2018-06-25T06:08:35.845Z,98153.31
2018-06-25T06:09:07.486Z,98154.57
2018-06-25T06:09:39.090Z,98141.11
2018-06-25T06:10:10.684Z,98157.13
2018-06-25T06:10:42.280Z,98158.41
2018-06-25T06:11:13.852Z,98152.45